createdAt,value
2022-09-12T00:00:35.471Z,98486.25
2022-09-12T00:03:01.825Z,98481.75
2022-09-12T00:05:28.220Z,98484.28
2022-09-12T00:07:54.535Z,98475.94
2022-09-12T00:10:20.842Z,98475.63
2022-09-12T00:12:47.194Z,98483.19
2022-09-12T00:15:13.527Z,98479.97
2022-09-12T00:17:39.849Z,98470.22
2022-09-12T00:20:07.466Z,98469.94
2022-09-12T00:22:33.808Z,98472.00
2022-09-12T00:25:00.526Z,98468.41
2022-09-12T00:27:27.058Z,98463.78
2022-09-12T00:29:53.404Z,98456.38
2022-09-12T00:32:20.056Z,98454.19
2022-09-12T00:34:46.387Z,98450.69
2022-09-12T00:37:12.806Z,98452.75
2022-09-12T00:39:39.172Z,98457.25
2022-09-12T00:42:05.659Z,98455.34
2022-09-12T00:44:34.953Z,98454.28
2022-09-12T00:47:04.028Z,98454.63
2022-09-12T00:49:30.286Z,98447.16
2022-09-12T00:51:59.666Z,98443.22
2022-09-12T00:54:27.209Z,98442.59
2022-09-12T00:56:54.036Z,98438.13
2022-09-12T00:59:21.658Z,98441.34
2022-09-12T01:01:48.525Z,98440.09
2022-09-12T01:04:14.900Z,98443.78
2022-09-12T01:06:41.754Z,98442.56
2022-09-12T01:09:08.534Z,98434.47
2022-09-12T01:11:35.897Z,98436.38
2022-09-12T01:14:02.247Z,98433.50
2022-09-12T01:16:28.703Z,98434.03
2022-09-12T01:19:02.395Z,98439.03
2022-09-12T01:21:51.930Z,98422.88
2022-09-12T01:24:21.031Z,98420.84
2022-09-12T01:27:22.808Z,98427.06
2022-09-12T01:30:01.339Z,98426.06
2022-09-12T01:32:42.702Z,98420.94
2022-09-12T01:35:27.886Z,98429.38
2022-09-12T01:37:54.277Z,98427.44
2022-09-12T01:40:26.839Z,98425.09
2022-09-12T01:43:03.272Z,98425.19
2022-09-12T01:45:39.445Z,98412.25
2022-09-12T01:48:07.618Z,98420.50
2022-09-12T01:50:35.064Z,98423.38
2022-09-12T01:53:08.883Z,98429.41
2022-09-12T01:55:36.561Z,98429.22
2022-09-12T01:58:32.348Z,98424.91
2022-09-12T02:01:07.750Z,98416.66
2022-09-12T02:03:37.978Z,98419.44
2022-09-12T02:06:06.632Z,98413.06
2022-09-12T02:08:40.622Z,98407.25
2022-09-12T02:11:07.830Z,98412.28
2022-09-12T02:13:39.429Z,98411.34
2022-09-12T02:16:10.647Z,98411.72
2022-09-12T02:18:38.586Z,98409.38
2022-09-12T02:21:05.346Z,98413.59
2022-09-12T02:23:31.728Z,98408.19
2022-09-12T02:26:00.231Z,98403.13
2022-09-12T02:28:27.731Z,98397.84
2022-09-12T02:31:03.277Z,98401.75
2022-09-12T02:33:35.376Z,98398.94
2022-09-12T02:36:14.372Z,98397.25
2022-09-12T02:38:40.677Z,98401.03
2022-09-12T02:41:13.884Z,98404.38
2022-09-12T02:43:40.543Z,98399.97
2022-09-12T02:46:07.365Z,98392.34
2022-09-12T02:48:34.574Z,98393.59
2022-09-12T02:51:00.950Z,98395.75
2022-09-12T02:53:27.355Z,98396.03
2022-09-12T02:55:53.689Z,98387.78
2022-09-12T02:58:23.608Z,98385.88
2022-09-12T03:01:13.516Z,98384.34
2022-09-12T03:03:53.160Z,98387.78
2022-09-12T03:06:40.892Z,98385.38
2022-09-12T03:09:15.810Z,98389.66
2022-09-12T03:11:48.535Z,98391.44
2022-09-12T03:14:17.820Z,98389.00
2022-09-12T03:16:53.597Z,98385.88
2022-09-12T03:19:40.168Z,98375.75
2022-09-12T03:22:11.533Z,98379.84
2022-09-12T03:24:43.816Z,98382.53
2022-09-12T03:27:12.598Z,98380.13
2022-09-12T03:29:38.938Z,98380.84
2022-09-12T03:32:05.271Z,98384.81
2022-09-12T03:34:31.585Z,98380.31
2022-09-12T03:36:58.188Z,98382.19
2022-09-12T03:39:24.586Z,98381.03
2022-09-12T03:41:51.169Z,98383.34
2022-09-12T03:44:17.683Z,98378.78
2022-09-12T03:46:44.064Z,98377.88
2022-09-12T03:49:10.828Z,98375.34
2022-09-12T03:51:37.480Z,98376.06
2022-09-12T03:54:04.071Z,98371.59
2022-09-12T03:56:30.377Z,98369.16
2022-09-12T03:58:56.740Z,98368.81
2022-09-12T04:01:23.122Z,98376.03
2022-09-12T04:03:50.353Z,98385.06
2022-09-12T04:06:17.360Z,98378.69
2022-09-12T04:08:43.829Z,98373.59
2022-09-12T04:11:11.696Z,98380.47
2022-09-12T04:13:38.293Z,98372.22
2022-09-12T04:16:04.859Z,98383.25
2022-09-12T04:18:31.187Z,98377.06
2022-09-12T04:20:57.507Z,98379.28
2022-09-12T04:23:23.865Z,98379.66
2022-09-12T04:25:54.047Z,98376.56
2022-09-12T04:28:20.440Z,98380.84
2022-09-12T04:30:46.802Z,98372.41
2022-09-12T04:33:13.202Z,98369.09
2022-09-12T04:35:39.563Z,98382.50
2022-09-12T04:38:05.898Z,98378.50
2022-09-12T04:40:33.274Z,98378.94
2022-09-12T04:42:59.638Z,98383.59
2022-09-12T04:45:25.959Z,98369.53
2022-09-12T04:47:52.341Z,98378.53
2022-09-12T04:50:19.993Z,98381.81
2022-09-12T04:52:52.747Z,98384.00
2022-09-12T04:55:19.350Z,98382.63
2022-09-12T04:57:45.681Z,98387.63
2022-09-12T05:00:15.225Z,98383.78
2022-09-12T05:02:41.723Z,98383.56
2022-09-12T05:05:08.424Z,98382.97
2022-09-12T05:07:34.735Z,98378.44
2022-09-12T05:10:01.091Z,98385.16
2022-09-12T05:12:27.545Z,98390.25
2022-09-12T05:14:54.155Z,98386.13
2022-09-12T05:17:20.476Z,98387.28
2022-09-12T05:19:47.611Z,98391.16
2022-09-12T05:22:13.936Z,98385.16
2022-09-12T05:24:47.246Z,98387.63
2022-09-12T05:27:16.228Z,98383.69
2022-09-12T05:29:43.403Z,98387.63
2022-09-12T05:32:09.808Z,98381.13
2022-09-12T05:34:36.140Z,98386.31
2022-09-12T05:37:02.459Z,98387.47
2022-09-12T05:39:28.798Z,98382.53
2022-09-12T05:41:55.828Z,98389.72
2022-09-12T05:44:22.231Z,98385.34
2022-09-12T05:46:51.241Z,98380.59
2022-09-12T05:49:17.625Z,98386.44
2022-09-12T05:51:44.947Z,98386.19
2022-09-12T05:54:12.063Z,98400.06
2022-09-12T05:56:39.392Z,98388.31
2022-09-12T05:59:06.640Z,98397.81
2022-09-12T06:01:33.610Z,98396.84
2022-09-12T06:04:00.915Z,98396.00
2022-09-12T06:06:28.082Z,98400.94
2022-09-12T06:08:56.285Z,98391.56
2022-09-12T06:11:23.404Z,98387.16
2022-09-12T06:13:50.959Z,98393.84
2022-09-12T06:16:21.737Z,98388.06
2022-09-12T06:18:48.495Z,98387.16
2022-09-12T06:21:14.860Z,98376.03
2022-09-12T06:23:41.656Z,98378.97
2022-09-12T06:26:09.288Z,98383.72
2022-09-12T06:28:36.140Z,98389.69
2022-09-12T06:31:06.296Z,98384.28
2022-09-12T06:33:36.028Z,98382.38
2022-09-12T06:36:10.157Z,98377.09
2022-09-12T06:38:38.630Z,98384.84
2022-09-12T06:41:05.505Z,98381.22
2022-09-12T06:43:32.398Z,98386.91
2022-09-12T06:45:59.012Z,98380.44
2022-09-12T06:48:25.364Z,98371.41
2022-09-12T06:51:10.436Z,98378.69
2022-09-12T06:53:37.171Z,98372.97
2022-09-12T06:56:19.494Z,98374.56
2022-09-12T06:58:46.104Z,98369.97
2022-09-12T07:01:32.891Z,98370.84
2022-09-12T07:04:00.173Z,98370.16
2022-09-12T07:06:31.513Z,98379.44
2022-09-12T07:08:58.422Z,98371.91
2022-09-12T07:11:25.762Z,98381.56
2022-09-12T07:13:52.810Z,98377.22
2022-09-12T07:16:20.078Z,98384.50
2022-09-12T07:18:56.554Z,98370.63
2022-09-12T07:21:22.922Z,98369.50
2022-09-12T07:23:49.320Z,98378.38
2022-09-12T07:26:15.917Z,98371.06
2022-09-12T07:28:42.347Z,98379.63
2022-09-12T07:31:13.092Z,98376.91
2022-09-12T07:33:39.778Z,98364.16
2022-09-12T07:36:11.661Z,98374.19
2022-09-12T07:38:38.504Z,98369.50
2022-09-12T07:41:14.631Z,98367.53
2022-09-12T07:43:41.941Z,98366.50
2022-09-12T07:46:08.404Z,98370.50
2022-09-12T07:48:34.971Z,98369.41
2022-09-12T07:51:01.780Z,98374.59
2022-09-12T07:53:30.995Z,98374.75
2022-09-12T07:55:57.363Z,98378.38
2022-09-12T07:58:26.569Z,98380.09
2022-09-12T08:00:52.952Z,98383.72
2022-09-12T08:03:19.583Z,98385.72
2022-09-12T08:05:45.899Z,98388.16
2022-09-12T08:08:12.227Z,98387.38
2022-09-12T08:10:38.545Z,98385.75
2022-09-12T08:13:04.867Z,98388.63
2022-09-12T08:15:31.488Z,98393.03
2022-09-12T08:17:57.953Z,98399.81
2022-09-12T08:20:28.158Z,98389.31
2022-09-12T08:22:54.765Z,98385.78
2022-09-12T08:25:21.105Z,98382.22
2022-09-12T08:27:48.289Z,98389.84
2022-09-12T08:30:14.635Z,98383.84
2022-09-12T08:32:40.979Z,98389.44
2022-09-12T08:35:08.035Z,98391.88
2022-09-12T08:37:34.371Z,98381.03
2022-09-12T08:40:00.733Z,98382.22
2022-09-12T08:42:37.849Z,98386.25
2022-09-12T08:45:04.700Z,98390.22
2022-09-12T08:47:35.441Z,98385.06
2022-09-12T08:50:05.094Z,98388.66
2022-09-12T08:52:46.791Z,98384.22
2022-09-12T08:55:24.453Z,98387.03
2022-09-12T08:57:51.934Z,98390.63
2022-09-12T09:00:19.176Z,98385.78
2022-09-12T09:02:54.847Z,98395.03
2022-09-12T09:05:24.037Z,98387.75
2022-09-12T09:07:53.393Z,98389.78
2022-09-12T09:10:38.830Z,98396.63
2022-09-12T09:13:43.525Z,98396.25
2022-09-12T09:16:13.755Z,98391.06
2022-09-12T09:18:40.235Z,98395.88
2022-09-12T09:21:15.667Z,98393.44
2022-09-12T09:23:42.760Z,98390.22
2022-09-12T09:26:14.646Z,98391.84
2022-09-12T09:28:44.142Z,98388.66
2022-09-12T09:31:12.691Z,98390.25
2022-09-12T09:33:39.106Z,98385.84
2022-09-12T09:36:08.163Z,98380.63
2022-09-12T09:38:43.600Z,98387.44
2022-09-12T09:41:22.190Z,98389.06
2022-09-12T09:43:48.602Z,98382.66
2022-09-12T09:46:15.024Z,98384.66
2022-09-12T09:48:41.967Z,98385.84
2022-09-12T09:51:09.299Z,98382.19
2022-09-12T09:53:38.738Z,98380.97
2022-09-12T09:56:12.799Z,98386.22
2022-09-12T09:58:39.254Z,98383.81
2022-09-12T10:01:06.276Z,98378.97
2022-09-12T10:03:39.105Z,98374.16
2022-09-12T10:06:08.543Z,98379.72
2022-09-12T10:08:35.794Z,98379.31
2022-09-12T10:11:03.234Z,98373.19
2022-09-12T10:13:37.583Z,98375.19
2022-09-12T10:16:05.504Z,98378.50
2022-09-12T10:18:42.305Z,98379.06
2022-09-12T10:21:29.653Z,98374.66
2022-09-12T10:24:15.036Z,98366.66
2022-09-12T10:26:41.417Z,98366.56
2022-09-12T10:29:12.781Z,98367.03
2022-09-12T10:31:46.662Z,98364.09
2022-09-12T10:34:21.071Z,98361.28
2022-09-12T10:36:47.458Z,98360.78
2022-09-12T10:39:18.471Z,98352.28
2022-09-12T10:41:44.806Z,98363.03
2022-09-12T10:44:14.851Z,98360.13
2022-09-12T10:46:41.181Z,98349.25
2022-09-12T10:49:20.022Z,98358.53
2022-09-12T10:51:46.563Z,98350.63
2022-09-12T10:54:13.210Z,98343.41
2022-09-12T10:56:42.067Z,98350.47
2022-09-12T10:59:08.452Z,98345.84
2022-09-12T11:01:34.786Z,98341.97
2022-09-12T11:04:19.991Z,98341.91
2022-09-12T11:07:01.643Z,98345.84
2022-09-12T11:09:31.208Z,98336.78
2022-09-12T11:11:57.777Z,98349.00
2022-09-12T11:14:24.047Z,98331.34
2022-09-12T11:16:53.131Z,98332.59
2022-09-12T11:19:38.318Z,98325.13
2022-09-12T11:22:07.685Z,98338.69
2022-09-12T11:24:46.017Z,98342.72
2022-09-12T11:27:18.092Z,98334.06
2022-09-12T11:29:52.299Z,98332.19
2022-09-12T11:32:21.873Z,98328.81
2022-09-12T11:35:01.255Z,98335.59
2022-09-12T11:37:49.377Z,98331.06
2022-09-12T11:40:20.244Z,98329.66
2022-09-12T11:42:46.758Z,98315.50
2022-09-12T11:45:14.735Z,98322.75
2022-09-12T11:47:41.319Z,98320.25
2022-09-12T11:50:15.439Z,98326.88
2022-09-12T11:52:41.813Z,98316.63
2022-09-12T11:55:18.473Z,98319.41
2022-09-12T11:57:57.906Z,98309.53
2022-09-12T12:00:24.216Z,98322.44
2022-09-12T12:03:02.781Z,98307.19
2022-09-12T12:05:31.453Z,98308.38
2022-09-12T12:07:58.593Z,98304.53
2022-09-12T12:10:41.230Z,98315.78
2022-09-12T12:13:18.007Z,98305.72
2022-09-12T12:15:48.607Z,98308.88
2022-09-12T12:18:19.007Z,98306.69
2022-09-12T12:20:45.579Z,98308.59
2022-09-12T12:23:22.620Z,98307.22
2022-09-12T12:25:52.903Z,98295.69
2022-09-12T12:28:50.564Z,98299.47
2022-09-12T12:31:17.058Z,98290.75
2022-09-12T12:33:43.364Z,98300.47
2022-09-12T12:36:09.801Z,98296.59
2022-09-12T12:38:36.933Z,98290.78
2022-09-12T12:41:18.463Z,98292.66
2022-09-12T12:43:48.279Z,98292.72
2022-09-12T12:46:15.108Z,98288.97
2022-09-12T12:48:52.090Z,98281.25
2022-09-12T12:51:29.941Z,98278.31
2022-09-12T12:53:56.332Z,98278.13
2022-09-12T12:56:25.706Z,98272.72
2022-09-12T12:58:57.219Z,98272.97
2022-09-12T13:01:23.552Z,98268.66
2022-09-12T13:03:53.192Z,98257.56
2022-09-12T13:06:32.588Z,98266.50
2022-09-12T13:09:00.455Z,98267.97
2022-09-12T13:11:31.609Z,98262.41
2022-09-12T13:13:58.780Z,98252.16
2022-09-12T13:16:31.596Z,98257.13
2022-09-12T13:18:58.013Z,98255.91
2022-09-12T13:21:24.336Z,98250.25
2022-09-12T13:24:02.093Z,98245.13
2022-09-12T13:26:28.867Z,98237.22
2022-09-12T13:29:10.782Z,98238.69
2022-09-12T13:31:37.110Z,98234.19
2022-09-12T13:34:04.731Z,98232.63
2022-09-12T13:36:37.306Z,98236.59
2022-09-12T13:39:15.959Z,98232.13
2022-09-12T13:41:42.282Z,98223.53
2022-09-12T13:44:09.699Z,98228.53
2022-09-12T13:46:36.105Z,98214.31
2022-09-12T13:49:05.969Z,98210.69
2022-09-12T13:51:32.508Z,98211.81
2022-09-12T13:54:00.149Z,98202.09
2022-09-12T13:56:26.545Z,98202.88
2022-09-12T13:58:54.720Z,98193.00
2022-09-12T14:01:21.064Z,98187.56
2022-09-12T14:04:12.900Z,98189.53
2022-09-12T14:06:50.139Z,98195.09
2022-09-12T14:09:26.854Z,98189.00
2022-09-12T14:11:53.683Z,98187.41
2022-09-12T14:14:27.467Z,98180.75
2022-09-12T14:16:54.898Z,98181.81
2022-09-12T14:19:22.128Z,98179.78
2022-09-12T14:21:49.461Z,98182.38
2022-09-12T14:24:15.819Z,98173.72
2022-09-12T14:26:42.203Z,98176.72
2022-09-12T14:29:08.570Z,98169.50
2022-09-12T14:31:35.698Z,98162.78
2022-09-12T14:34:09.654Z,98159.59
2022-09-12T14:36:49.013Z,98156.28
2022-09-12T14:39:17.625Z,98161.16
2022-09-12T14:41:44.032Z,98166.28
2022-09-12T14:44:23.083Z,98157.41
2022-09-12T14:46:49.446Z,98152.34
2022-09-12T14:49:16.922Z,98139.22
2022-09-12T14:51:51.110Z,98148.28
2022-09-12T14:54:30.272Z,98145.38
2022-09-12T14:56:57.472Z,98144.75
2022-09-12T14:59:27.741Z,98149.41
2022-09-12T15:02:14.371Z,98144.44
2022-09-12T15:04:41.074Z,98138.09
2022-09-12T15:07:14.680Z,98138.69
2022-09-12T15:09:46.464Z,98147.78
2022-09-12T15:12:13.631Z,98138.50
2022-09-12T15:14:39.980Z,98137.50
2022-09-12T15:17:06.347Z,98131.59
2022-09-12T15:19:32.700Z,98131.31
2022-09-12T15:21:59.041Z,98126.06
2022-09-12T15:24:25.598Z,98123.66
2022-09-12T15:26:52.634Z,98124.72
2022-09-12T15:29:19.034Z,98119.94
2022-09-12T15:31:46.207Z,98114.41
2022-09-12T15:34:12.544Z,98120.19
2022-09-12T15:36:38.876Z,98120.19
2022-09-12T15:39:05.281Z,98116.84
2022-09-12T15:41:32.133Z,98115.44
2022-09-12T15:43:58.559Z,98117.41
2022-09-12T15:46:24.981Z,98116.66
2022-09-12T15:48:51.357Z,98107.47
2022-09-12T15:51:18.419Z,98109.44
2022-09-12T15:53:44.926Z,98107.06
2022-09-12T15:56:11.516Z,98104.28
2022-09-12T15:58:49.787Z,98103.06
2022-09-12T16:01:23.878Z,98095.91
2022-09-12T16:03:50.230Z,98093.66
2022-09-12T16:06:16.563Z,98099.19
2022-09-12T16:08:43.237Z,98092.09
2022-09-12T16:11:12.193Z,98092.94
2022-09-12T16:13:38.519Z,98084.91
2022-09-12T16:16:04.924Z,98086.88
2022-09-12T16:18:31.275Z,98086.78
2022-09-12T16:20:57.790Z,98083.31
2022-09-12T16:23:24.095Z,98083.38
2022-09-12T16:26:00.064Z,98067.41
2022-09-12T16:28:26.728Z,98066.56
2022-09-12T16:30:56.703Z,98067.06
2022-09-12T16:33:23.052Z,98061.16
2022-09-12T16:35:51.318Z,98057.69
2022-09-12T16:38:17.883Z,98055.22
2022-09-12T16:40:44.266Z,98051.72
2022-09-12T16:43:10.635Z,98045.13
2022-09-12T16:45:37.326Z,98048.56
2022-09-12T16:48:03.705Z,98050.28
2022-09-12T16:50:30.355Z,98050.84
2022-09-12T16:52:56.700Z,98047.81
2022-09-12T16:55:23.119Z,98045.47
2022-09-12T16:57:49.454Z,98045.47
2022-09-12T17:00:16.065Z,98046.69
2022-09-12T17:02:42.571Z,98025.03
2022-09-12T17:05:09.564Z,98025.97
2022-09-12T17:07:35.946Z,98024.41
2022-09-12T17:10:02.329Z,98021.63
2022-09-12T17:12:28.746Z,98023.25
2022-09-12T17:14:55.124Z,98021.28
2022-09-12T17:17:21.543Z,98028.13
2022-09-12T17:19:47.883Z,98025.03
2022-09-12T17:22:14.223Z,98029.09
2022-09-12T17:24:40.652Z,98017.13
2022-09-12T17:27:07.100Z,98021.97
2022-09-12T17:29:35.112Z,98009.91
2022-09-12T17:32:01.552Z,98017.19
2022-09-12T17:34:27.942Z,98023.69
2022-09-12T17:36:54.279Z,98007.97
2022-09-12T17:39:20.594Z,98008.00
2022-09-12T17:41:47.104Z,97992.75
2022-09-12T17:44:14.188Z,98001.19
2022-09-12T17:46:40.642Z,98001.16
2022-09-12T17:49:08.216Z,98001.97
2022-09-12T17:51:34.752Z,97997.97
2022-09-12T17:54:05.506Z,97995.94
2022-09-12T17:56:32.051Z,97997.94
2022-09-12T17:58:58.583Z,98007.19
2022-09-12T18:01:43.522Z,98003.19
2022-09-12T18:04:10.714Z,97999.16
2022-09-12T18:06:37.044Z,97996.34
2022-09-12T18:09:04.286Z,98003.97
2022-09-12T18:11:30.667Z,97998.59
2022-09-12T18:14:00.100Z,98003.72
2022-09-12T18:16:26.635Z,98002.59
2022-09-12T18:18:52.947Z,97997.72
2022-09-12T18:21:19.818Z,98003.88
2022-09-12T18:23:46.522Z,98003.53
2022-09-12T18:26:13.582Z,97995.13
2022-09-12T18:28:40.732Z,97995.13
2022-09-12T18:31:10.443Z,97996.75
2022-09-12T18:33:37.911Z,97996.41
2022-09-12T18:36:04.840Z,97996.44
2022-09-12T18:38:31.207Z,97989.66
2022-09-12T18:41:04.321Z,97988.06
2022-09-12T18:43:30.680Z,97989.25
2022-09-12T18:45:57.102Z,97993.28
2022-09-12T18:48:23.444Z,97990.09
2022-09-12T18:50:49.784Z,97991.75
2022-09-12T18:53:16.094Z,97988.56
2022-09-12T18:55:42.888Z,97991.03
2022-09-12T18:58:09.233Z,97990.66
2022-09-12T19:00:36.260Z,97991.47
2022-09-12T19:03:02.586Z,97988.31
2022-09-12T19:05:28.917Z,97987.50
2022-09-12T19:07:55.471Z,97993.03
2022-09-12T19:10:21.802Z,97979.41
2022-09-12T19:12:48.115Z,97974.94
2022-09-12T19:15:14.456Z,97972.09
2022-09-12T19:17:40.904Z,97971.22
2022-09-12T19:20:07.359Z,97966.81
2022-09-12T19:22:33.721Z,97960.41
2022-09-12T19:25:00.113Z,97964.81
2022-09-12T19:27:26.838Z,97959.97
2022-09-12T19:29:53.207Z,97955.53
2022-09-12T19:32:19.530Z,97955.81
2022-09-12T19:34:45.905Z,97952.13
2022-09-12T19:37:12.274Z,97953.78
2022-09-12T19:39:39.066Z,97947.00
2022-09-12T19:42:05.467Z,97947.69
2022-09-12T19:44:31.826Z,97947.56
2022-09-12T19:46:58.486Z,97949.91
2022-09-12T19:49:24.811Z,97941.41
2022-09-12T19:51:51.141Z,97944.84
2022-09-12T19:54:17.762Z,97935.66
2022-09-12T19:56:44.078Z,97933.00
2022-09-12T19:59:10.534Z,97935.06
2022-09-12T20:01:37.487Z,97931.03
2022-09-12T20:04:04.305Z,97927.88
2022-09-12T20:06:30.619Z,97935.00
2022-09-12T20:08:57.942Z,97916.63
2022-09-12T20:11:24.480Z,97921.84
2022-09-12T20:13:50.829Z,97911.88
2022-09-12T20:16:21.714Z,97905.47
2022-09-12T20:18:49.349Z,97909.47
2022-09-12T20:21:16.703Z,97921.50
2022-09-12T20:23:43.240Z,97913.06
2022-09-12T20:26:09.647Z,97915.88
2022-09-12T20:28:36.484Z,97913.06
2022-09-12T20:31:03.497Z,97915.47
2022-09-12T20:33:29.954Z,97902.66
2022-09-12T20:36:03.495Z,97899.06
2022-09-12T20:38:29.806Z,97900.69
2022-09-12T20:40:56.141Z,97899.84
2022-09-12T20:43:22.497Z,97900.66
2022-09-12T20:45:48.852Z,97903.47
2022-09-12T20:48:15.179Z,97901.47
2022-09-12T20:50:41.514Z,97893.47
2022-09-12T20:53:07.825Z,97890.25
2022-09-12T20:55:34.154Z,97883.81
2022-09-12T20:58:00.457Z,97874.22
2022-09-12T21:00:26.794Z,97866.19
2022-09-12T21:02:53.164Z,97857.75
2022-09-12T21:05:19.539Z,97859.72
2022-09-12T21:07:45.857Z,97859.72
2022-09-12T21:10:13.632Z,97857.78
2022-09-12T21:12:39.962Z,97859.06
2022-09-12T21:15:06.777Z,97856.69
2022-09-12T21:17:33.103Z,97857.50
2022-09-12T21:19:59.435Z,97855.50
2022-09-12T21:22:25.756Z,97861.06
2022-09-12T21:24:52.107Z,97854.66
2022-09-12T21:27:18.440Z,97850.19
2022-09-12T21:29:44.753Z,97843.81
2022-09-12T21:32:14.040Z,97844.94
2022-09-12T21:34:41.776Z,97845.75
2022-09-12T21:37:08.132Z,97841.34
2022-09-12T21:39:34.445Z,97843.75
2022-09-12T21:42:01.018Z,97836.53
2022-09-12T21:44:27.403Z,97822.94
2022-09-12T21:46:53.861Z,97813.72
2022-09-12T21:49:20.256Z,97818.50
2022-09-12T21:51:46.677Z,97819.72
2022-09-12T21:54:12.990Z,97824.53
2022-09-12T21:56:39.402Z,97825.28
2022-09-12T21:59:05.736Z,97821.25
2022-09-12T22:01:32.133Z,97819.34
2022-09-12T22:03:58.654Z,97810.53
2022-09-12T22:06:25.052Z,97816.53
2022-09-12T22:08:51.364Z,97815.72
2022-09-12T22:11:19.777Z,97809.38
2022-09-12T22:13:46.179Z,97800.56
2022-09-12T22:16:12.652Z,97807.00
2022-09-12T22:18:39.079Z,97804.56
2022-09-12T22:21:06.396Z,97800.44
2022-09-12T22:23:51.485Z,97791.19
2022-09-12T22:26:18.023Z,97799.19
2022-09-12T22:28:44.363Z,97809.16
2022-09-12T22:31:12.010Z,97802.41
2022-09-12T22:33:38.405Z,97792.34
2022-09-12T22:36:04.974Z,97803.59
2022-09-12T22:38:31.361Z,97802.09
2022-09-12T22:41:01.043Z,97799.69
2022-09-12T22:43:27.807Z,97800.09
2022-09-12T22:45:54.197Z,97798.56
2022-09-12T22:48:20.505Z,97793.41
2022-09-12T22:50:46.891Z,97797.78
2022-09-12T22:53:13.214Z,97795.38
2022-09-12T22:55:39.726Z,97796.50
2022-09-12T22:58:06.040Z,97793.69
2022-09-12T23:00:32.475Z,97801.72
2022-09-12T23:02:58.857Z,97794.97
2022-09-12T23:05:25.201Z,97795.00
2022-09-12T23:07:51.557Z,97781.41
2022-09-12T23:10:17.887Z,97790.59
2022-09-12T23:12:44.235Z,97783.03
2022-09-12T23:15:11.271Z,97770.25
2022-09-12T23:17:37.596Z,97766.22
2022-09-12T23:20:04.671Z,97772.22
2022-09-12T23:22:30.999Z,97758.59
2022-09-12T23:24:57.311Z,97762.22
2022-09-12T23:27:25.922Z,97761.41
2022-09-12T23:29:52.353Z,97758.22
2022-09-12T23:32:20.046Z,97759.50
2022-09-12T23:34:47.124Z,97756.75
2022-09-12T23:37:13.455Z,97746.75
2022-09-12T23:39:39.853Z,97758.78
2022-09-12T23:42:06.236Z,97754.72
2022-09-12T23:44:32.580Z,97757.91
2022-09-12T23:46:58.898Z,97755.91
2022-09-12T23:49:25.204Z,97757.91
2022-09-12T23:51:51.532Z,97745.56
2022-09-12T23:54:17.838Z,97743.53
2022-09-12T23:56:44.172Z,97755.50
2022-09-12T23:59:10.504Z,97752.72
